KIKK/IKK METAR and TAF weather

Enter ICAO airport designator
Station Type Date Time Source
KIKK METAR 2018/12/13 05:55 UTC NOAA

KIKK 130555Z AUTO 20004KT 10SM CLR M02/M04 A3000 RMK AO2 T10201042 10016 21034 400631034


Station Type Date Time Source
KIKK Decoded METAR 2018/12/13 05:55 UTC NOAA

Kankakee, Greater Kankakee Airport, IL, United States (KIKK) 41-04-17N 087-50-47W
Dec 13, 2018 - 12:55 AM EST / 2018.12.13 0555 UTC
Wind: from the SSW (200 degrees) at 5 MPH (4 KT):0
Visibility: 10 mile(s):0
Sky conditions: clear
Temperature: 28.4 F (-2.0 C)
Windchill: 23 F (-5 C):1
Dew Point: 24.4 F (-4.2 C)
Relative Humidity: 84%
Pressure (altimeter): 30 in. Hg (1015 hPa)
ob: KIKK 130555Z AUTO 20004KT 10SM CLR M02/M04 A3000 RMK AO2 T10201042 10016 21034 400631034
cycle: 6

Station Type Date Time Source
KIKK TAF UTC NOAA

Error!


Example: see airport list